Time;durP1;ratioP1;P1;durP2;ratioP2;P2;SDS_P1;SDS_P2;PMS_P1;PMS_P2;Temp;Humidity;BMP_temperature;BMP_pressure;BME280_temperature;BME280_humidity;BME280_pressure;Samples;Min_cycle;Max_cycle;Signal;HPM_P1;HPM_P2
2022/07/22 00:01:46;;;;;;;9.18;1.65;;;17.50;99.90;;;;;;5035384;28;20039;-79
2022/07/22 00:04:12;;;;;;;8.00;1.90;;;17.50;99.90;;;;;;5040527;28;20255;-79
2022/07/22 00:06:37;;;;;;;14.27;1.80;;;17.50;99.90;;;;;;5036673;28;20283;-79
2022/07/22 00:09:04;;;;;;;10.52;1.38;;;17.50;99.90;;;;;;5034843;28;20033;-79
2022/07/22 00:11:29;;;;;;;8.18;1.52;;;17.50;99.90;;;;;;5030006;28;20584;-79
2022/07/22 00:13:55;;;;;;;6.35;2.10;;;17.60;99.90;;;;;;5033194;28;20472;-79
2022/07/22 00:16:21;;;;;;;8.25;1.60;;;17.60;99.90;;;;;;5034422;28;20067;-79
2022/07/22 00:18:46;;;;;;;15.38;2.30;;;17.60;99.90;;;;;;5035201;28;20507;-79
2022/07/22 00:21:12;;;;;;;10.55;1.70;;;17.60;99.90;;;;;;5028400;28;20573;-79
2022/07/22 00:23:38;;;;;;;10.20;1.98;;;17.60;99.90;;;;;;5031601;28;20136;-79
2022/07/22 00:26:04;;;;;;;7.63;1.33;;;17.60;99.90;;;;;;5031110;28;20032;-79
2022/07/22 00:28:29;;;;;;;6.50;2.17;;;17.60;99.90;;;;;;5029340;28;20489;-78
2022/07/22 00:30:56;;;;;;;7.97;1.98;;;17.60;99.90;;;;;;5034907;28;20043;-79
2022/07/22 00:33:22;;;;;;;6.30;1.63;;;17.60;99.90;;;;;;5031171;28;20376;-79
2022/07/22 00:35:48;;;;;;;11.73;1.90;;;17.60;99.90;;;;;;5032846;28;20033;-79
2022/07/22 00:38:13;;;;;;;5.70;1.40;;;17.60;99.90;;;;;;5032220;28;20041;-80
2022/07/22 00:40:39;;;;;;;4.43;1.80;;;17.60;99.90;;;;;;5032704;28;20385;-80
2022/07/22 00:43:04;;;;;;;11.50;1.60;;;17.50;99.90;;;;;;5040556;28;20044;-79
2022/07/22 00:45:30;;;;;;;9.38;1.85;;;17.50;99.90;;;;;;5029715;28;20029;-79
2022/07/22 00:47:56;;;;;;;8.02;1.85;;;17.50;99.90;;;;;;5039457;28;20071;-78
2022/07/22 00:50:23;;;;;;;8.55;2.22;;;17.50;99.90;;;;;;5036051;28;20071;-79
2022/07/22 00:52:49;;;;;;;8.98;1.80;;;17.50;99.90;;;;;;5034081;28;20044;-79
2022/07/22 00:55:15;;;;;;;7.32;1.85;;;17.40;99.90;;;;;;5038193;28;20119;-78
2022/07/22 00:57:42;;;;;;;8.80;1.70;;;17.40;99.90;;;;;;5045128;28;20029;-79
2022/07/22 01:00:12;;;;;;;9.23;1.85;;;17.30;99.90;;;;;;5030373;28;19948;-79
2022/07/22 01:02:38;;;;;;;6.38;1.55;;;17.20;99.90;;;;;;5046378;28;20681;-79
2022/07/22 01:05:05;;;;;;;10.25;1.98;;;17.20;99.90;;;;;;5047377;28;20037;-79
2022/07/22 01:07:31;;;;;;;4.00;1.77;;;17.20;99.90;;;;;;5044737;28;20100;-79
2022/07/22 01:09:56;;;;;;;6.85;1.48;;;17.20;99.90;;;;;;5062326;22;20052;-79
2022/07/22 01:12:22;;;;;;;7.20;1.75;;;17.20;99.90;;;;;;5070451;28;20043;-79
2022/07/22 01:14:48;;;;;;;9.57;2.00;;;17.20;99.90;;;;;;5076812;28;20032;-79
2022/07/22 01:17:13;;;;;;;7.63;1.80;;;17.20;99.90;;;;;;5071232;28;20067;-79
2022/07/22 01:19:39;;;;;;;9.27;2.00;;;17.20;99.90;;;;;;5079790;28;20027;-79
2022/07/22 01:22:06;;;;;;;8.75;2.15;;;17.10;99.90;;;;;;5065992;28;20028;-79
2022/07/22 01:24:32;;;;;;;5.78;1.90;;;17.10;99.90;;;;;;5073559;28;20498;-80
2022/07/22 01:26:58;;;;;;;8.40;2.15;;;17.10;99.90;;;;;;5071691;28;20036;-79
2022/07/22 01:29:23;;;;;;;4.50;1.23;;;17.10;99.90;;;;;;5074907;28;20028;-79
2022/07/22 01:31:49;;;;;;;7.35;1.85;;;17.10;99.90;;;;;;5078859;28;20028;-79
2022/07/22 01:34:15;;;;;;;8.05;1.75;;;17.20;99.90;;;;;;5072799;28;20058;-79
2022/07/22 01:36:41;;;;;;;6.30;1.55;;;17.20;99.90;;;;;;5067781;28;20063;-79
2022/07/22 01:39:06;;;;;;;8.68;1.65;;;17.20;99.90;;;;;;5071872;28;20367;-80
2022/07/22 01:41:32;;;;;;;9.73;1.58;;;17.20;99.90;;;;;;5077074;28;20070;-79
2022/07/22 01:43:58;;;;;;;9.23;1.92;;;17.20;99.90;;;;;;5071950;28;20029;-79
2022/07/22 01:46:24;;;;;;;8.23;1.40;;;17.20;99.90;;;;;;5054317;28;20418;-79
2022/07/22 01:48:51;;;;;;;10.77;2.78;;;17.20;99.90;;;;;;5060634;28;20020;-79
2022/07/22 01:51:17;;;;;;;6.57;2.08;;;17.10;99.90;;;;;;5075779;28;20775;-79
2022/07/22 01:53:43;;;;;;;4.07;1.40;;;17.10;99.90;;;;;;5071800;28;20050;-79
2022/07/22 01:56:09;;;;;;;6.57;1.45;;;17.10;99.90;;;;;;5082977;28;20503;-80
2022/07/22 01:58:35;;;;;;;3.85;1.95;;;17.00;99.90;;;;;;5070284;28;20055;-79
2022/07/22 02:01:00;;;;;;;13.10;2.58;;;17.00;99.90;;;;;;5074162;28;20039;-79
2022/07/22 02:03:26;;;;;;;7.43;1.85;;;16.80;99.90;;;;;;5062193;28;20028;-79
2022/07/22 02:05:52;;;;;;;9.48;2.08;;;16.70;99.90;;;;;;5083146;28;20032;-79
2022/07/22 02:08:17;;;;;;;8.88;1.98;;;16.60;99.90;;;;;;5058754;28;20475;-79
2022/07/22 02:10:43;;;;;;;10.13;2.08;;;16.50;99.90;;;;;;5075942;28;20045;-78
2022/07/22 02:13:09;;;;;;;11.43;2.38;;;16.50;99.90;;;;;;5068870;28;20063;-80
2022/07/22 02:15:35;;;;;;;5.50;1.58;;;16.40;99.90;;;;;;5074221;28;20036;-79
2022/07/22 02:18:09;;;;;;;8.88;1.83;;;16.40;99.90;;;;;;5073925;28;20044;-79
2022/07/22 02:20:34;;;;;;;10.00;1.70;;;16.40;99.90;;;;;;5055475;28;20025;-79
2022/07/22 02:23:00;;;;;;;10.48;2.50;;;16.40;99.90;;;;;;5051897;28;20081;-79
2022/07/22 02:25:25;;;;;;;6.50;1.30;;;16.40;99.90;;;;;;5072616;28;20112;-79
2022/07/22 02:27:51;;;;;;;5.22;1.67;;;16.40;99.90;;;;;;5071464;28;20111;-79
2022/07/22 02:30:17;;;;;;;6.45;1.92;;;16.40;99.90;;;;;;5065180;28;20565;-79
2022/07/22 02:32:42;;;;;;;4.97;1.33;;;16.40;99.90;;;;;;5074780;28;20406;-78
2022/07/22 02:35:08;;;;;;;6.13;1.33;;;16.50;99.90;;;;;;5072750;28;20479;-78
2022/07/22 02:37:34;;;;;;;5.97;1.45;;;16.50;99.90;;;;;;5060040;28;20054;-78
2022/07/22 02:40:00;;;;;;;7.65;1.67;;;16.50;99.90;;;;;;5093943;28;20028;-77
2022/07/22 02:42:26;;;;;;;8.40;1.67;;;16.60;99.90;;;;;;5071341;28;20024;-77
2022/07/22 02:44:51;;;;;;;4.95;1.73;;;16.60;99.90;;;;;;5065885;28;20082;-77
2022/07/22 02:47:17;;;;;;;8.75;1.90;;;16.70;99.90;;;;;;5073538;28;20024;-77
2022/07/22 02:49:42;;;;;;;9.30;1.80;;;16.60;99.90;;;;;;5072775;28;20054;-77
2022/07/22 02:52:08;;;;;;;4.60;1.58;;;16.70;99.90;;;;;;5077624;28;20024;-78
2022/07/22 02:54:34;;;;;;;8.98;2.30;;;16.60;99.90;;;;;;5081981;28;20032;-77
2022/07/22 02:56:59;;;;;;;9.05;1.70;;;16.60;99.90;;;;;;5083308;28;20036;-77
2022/07/22 02:59:25;;;;;;;8.35;2.15;;;16.60;99.90;;;;;;5078605;28;20173;-78
2022/07/22 03:01:50;;;;;;;6.85;1.83;;;16.50;99.90;;;;;;5071871;28;20036;-77
2022/07/22 03:04:16;;;;;;;8.88;1.85;;;16.40;99.90;;;;;;5063487;28;20455;-78
2022/07/22 03:06:42;;;;;;;4.97;1.80;;;16.40;99.90;;;;;;5089641;28;20024;-78
2022/07/22 03:09:07;;;;;;;6.88;3.30;;;16.30;99.90;;;;;;5056898;28;20123;-77
2022/07/22 03:11:33;;;;;;;4.15;1.40;;;16.20;99.90;;;;;;5066465;28;20051;-77
2022/07/22 03:13:59;;;;;;;9.07;2.13;;;16.20;99.90;;;;;;5073643;28;20032;-77
2022/07/22 03:16:24;;;;;;;9.15;1.85;;;16.10;99.90;;;;;;5097734;28;20054;-77
2022/07/22 03:18:50;;;;;;;9.30;1.60;;;16.00;99.90;;;;;;5101429;28;20043;-77
2022/07/22 03:21:15;;;;;;;12.40;1.73;;;16.00;99.90;;;;;;5079722;28;20031;-77
2022/07/22 03:23:41;;;;;;;9.68;2.10;;;15.90;99.90;;;;;;5072871;28;20298;-77
2022/07/22 03:26:07;;;;;;;6.28;1.42;;;16.00;99.90;;;;;;5074403;28;20024;-77
2022/07/22 03:28:32;;;;;;;4.18;1.95;;;15.90;99.90;;;;;;5074242;28;20426;-77
2022/07/22 03:30:58;;;;;;;8.40;1.95;;;15.90;99.90;;;;;;5064775;28;20044;-77
2022/07/22 03:33:24;;;;;;;13.07;1.77;;;15.90;99.90;;;;;;5079320;28;20043;-77
2022/07/22 03:35:49;;;;;;;8.43;1.73;;;15.90;99.90;;;;;;5093503;28;20051;-77
2022/07/22 03:38:15;;;;;;;7.82;1.60;;;15.90;99.90;;;;;;5070251;28;20056;-77
2022/07/22 03:40:41;;;;;;;10.15;1.80;;;15.90;99.90;;;;;;5069693;28;20035;-78
2022/07/22 03:43:06;;;;;;;5.50;1.67;;;16.00;99.90;;;;;;5063491;28;20039;-77
2022/07/22 03:45:32;;;;;;;8.82;2.08;;;15.90;99.90;;;;;;5076308;28;20129;-77
2022/07/22 03:47:58;;;;;;;6.07;1.55;;;15.90;99.90;;;;;;5080277;28;20395;-78
2022/07/22 03:50:24;;;;;;;6.18;1.73;;;15.90;99.90;;;;;;5075453;28;20023;-77
2022/07/22 03:52:50;;;;;;;8.85;1.85;;;16.00;99.90;;;;;;5073505;28;20035;-77
2022/07/22 03:55:15;;;;;;;8.95;1.90;;;15.90;99.90;;;;;;5083968;28;20039;-77
2022/07/22 03:57:41;;;;;;;7.70;1.65;;;15.90;99.90;;;;;;5079751;28;20044;-78
2022/07/22 04:00:07;;;;;;;5.60;1.70;;;15.90;99.90;;;;;;5077447;28;20024;-78
2022/07/22 04:02:33;;;;;;;7.70;1.42;;;15.90;99.90;;;;;;5068279;28;20101;-77
2022/07/22 04:04:58;;;;;;;6.22;1.65;;;15.80;99.90;;;;;;5082005;28;20037;-77
2022/07/22 04:07:24;;;;;;;8.45;2.67;;;15.80;99.90;;;;;;5075213;28;20024;-77
2022/07/22 04:09:50;;;;;;;5.38;1.38;;;15.70;99.90;;;;;;5069626;28;20475;-77
2022/07/22 04:12:15;;;;;;;6.82;2.05;;;15.80;99.90;;;;;;5070187;28;20057;-77
2022/07/22 04:14:41;;;;;;;5.40;1.77;;;15.70;99.90;;;;;;5066250;28;20037;-77
2022/07/22 04:17:06;;;;;;;5.68;2.00;;;15.60;99.90;;;;;;5078235;28;20051;-77
2022/07/22 04:19:32;;;;;;;5.88;1.63;;;15.60;99.90;;;;;;5080134;28;20054;-77
2022/07/22 04:21:58;;;;;;;7.38;1.67;;;15.50;99.90;;;;;;5069090;28;20029;-77
2022/07/22 04:24:23;;;;;;;6.50;2.03;;;15.50;99.90;;;;;;5075261;28;20028;-78
2022/07/22 04:26:49;;;;;;;6.25;1.65;;;15.50;99.90;;;;;;5073549;28;20611;-77
2022/07/22 04:29:15;;;;;;;5.53;1.45;;;15.50;99.90;;;;;;5080858;28;20391;-77
2022/07/22 04:31:40;;;;;;;9.48;2.35;;;15.40;99.90;;;;;;5076017;28;20040;-78
2022/07/22 04:34:06;;;;;;;7.07;1.92;;;15.50;99.90;;;;;;5063508;28;20024;-78
2022/07/22 04:36:32;;;;;;;7.43;1.55;;;15.50;99.90;;;;;;5078329;28;20513;-78
2022/07/22 04:38:58;;;;;;;9.00;2.13;;;15.50;99.90;;;;;;5068747;28;20128;-77
2022/07/22 04:41:23;;;;;;;6.38;1.77;;;15.60;99.90;;;;;;5083965;28;20031;-79
2022/07/22 04:43:49;;;;;;;7.68;1.80;;;15.60;99.90;;;;;;5066211;28;20028;-79
2022/07/22 04:46:15;;;;;;;8.63;1.63;;;15.70;99.90;;;;;;5082846;28;20151;-77
2022/07/22 04:48:40;;;;;;;7.22;1.73;;;15.70;99.90;;;;;;5056345;28;20036;-77
2022/07/22 04:51:06;;;;;;;7.20;1.85;;;15.80;99.90;;;;;;5077380;28;20024;-77
2022/07/22 04:53:32;;;;;;;8.95;2.42;;;15.90;99.90;;;;;;5071909;28;20494;-78
2022/07/22 04:55:57;;;;;;;7.70;1.80;;;15.90;99.90;;;;;;5080146;28;20510;-77
2022/07/22 04:58:23;;;;;;;6.45;1.95;;;16.00;99.90;;;;;;5083753;28;20502;-77
2022/07/22 05:00:49;;;;;;;8.57;1.50;;;16.10;99.90;;;;;;5088485;28;20474;-77
2022/07/22 05:03:14;;;;;;;11.43;2.25;;;16.20;99.90;;;;;;5086072;28;20034;-77
2022/07/22 05:05:40;;;;;;;10.93;1.85;;;16.30;99.90;;;;;;5087925;28;20032;-77
2022/07/22 05:08:06;;;;;;;8.57;2.78;;;16.40;99.90;;;;;;5090169;28;20024;-80
2022/07/22 05:10:32;;;;;;;8.35;1.98;;;16.40;99.90;;;;;;5059177;28;20121;-78
2022/07/22 05:12:59;;;;;;;6.78;1.90;;;16.60;99.90;;;;;;5081086;28;20031;-78
2022/07/22 05:15:24;;;;;;;6.30;2.65;;;16.60;99.90;;;;;;5057488;28;20078;-77
2022/07/22 05:17:50;;;;;;;6.63;1.40;;;16.70;99.90;;;;;;5067567;28;20047;-77
2022/07/22 05:20:16;;;;;;;5.82;1.48;;;16.80;99.90;;;;;;5083168;28;20103;-77
2022/07/22 05:22:42;;;;;;;4.68;1.60;;;16.80;99.90;;;;;;5067850;28;20024;-78
2022/07/22 05:25:08;;;;;;;8.73;1.75;;;16.90;99.90;;;;;;5062391;28;20085;-78
2022/07/22 05:27:34;;;;;;;6.78;1.35;;;16.90;99.90;;;;;;5076370;28;20040;-78
2022/07/22 05:29:59;;;;;;;6.63;1.98;;;17.00;99.90;;;;;;5082257;28;20027;-77
2022/07/22 05:32:25;;;;;;;7.07;1.83;;;17.10;99.90;;;;;;5085886;28;20081;-77
2022/07/22 05:34:51;;;;;;;9.23;1.67;;;17.20;99.90;;;;;;5073401;28;20505;-78
2022/07/22 05:37:16;;;;;;;9.55;1.80;;;17.20;99.90;;;;;;5072655;28;20040;-78
2022/07/22 05:39:43;;;;;;;8.82;2.20;;;17.30;99.90;;;;;;5070606;28;20120;-78
2022/07/22 05:42:09;;;;;;;12.20;2.35;;;17.50;99.90;;;;;;5071609;28;20161;-76
2022/07/22 05:44:34;;;;;;;5.90;2.03;;;17.60;99.90;;;;;;5077382;28;20502;-77
2022/07/22 05:47:00;;;;;;;13.10;1.80;;;17.80;99.90;;;;;;5079301;28;22291;-77
2022/07/22 05:49:26;;;;;;;6.68;1.63;;;18.00;99.90;;;;;;5075273;28;20039;-78
2022/07/22 05:51:53;;;;;;;7.15;1.83;;;18.20;99.90;;;;;;5071671;28;20036;-76
2022/07/22 05:54:20;;;;;;;10.35;1.67;;;18.30;99.90;;;;;;5077082;28;20433;-78
2022/07/22 05:56:45;;;;;;;6.90;1.42;;;18.30;99.90;;;;;;5082334;28;20032;-77
2022/07/22 05:59:11;;;;;;;7.03;2.85;;;18.30;99.90;;;;;;5080548;28;20016;-77
2022/07/22 06:01:37;;;;;;;5.97;1.80;;;18.50;99.90;;;;;;5079799;28;20477;-77
2022/07/22 06:04:03;;;;;;;5.60;1.70;;;18.50;99.90;;;;;;5080033;28;20025;-78
2022/07/22 06:06:28;;;;;;;8.40;1.75;;;18.60;99.90;;;;;;5082359;28;20169;-77
2022/07/22 06:08:54;;;;;;;4.40;1.13;;;18.70;99.90;;;;;;5069179;28;20146;-77
2022/07/22 06:11:20;;;;;;;5.93;1.27;;;18.90;99.90;;;;;;5070514;28;20036;-77
2022/07/22 06:13:46;;;;;;;6.18;1.65;;;19.00;99.90;;;;;;5081327;28;20183;-77
2022/07/22 06:16:11;;;;;;;5.25;1.60;;;19.00;99.90;;;;;;5081072;28;20123;-77
2022/07/22 06:18:37;;;;;;;6.65;1.42;;;19.10;99.90;;;;;;5073371;28;20020;-77
2022/07/22 06:21:05;;;;;;;14.10;2.78;;;19.20;99.90;;;;;;5068142;28;20158;-77
2022/07/22 06:23:30;;;;;;;5.78;1.63;;;19.20;99.90;;;;;;5067661;28;20028;-76
2022/07/22 06:25:56;;;;;;;4.93;1.10;;;19.30;99.90;;;;;;5073590;28;20034;-78
2022/07/22 06:28:22;;;;;;;7.32;1.60;;;19.40;99.90;;;;;;5069452;28;20059;-78
2022/07/22 06:30:48;;;;;;;5.65;1.77;;;19.30;99.90;;;;;;5079342;28;20024;-78
2022/07/22 06:33:13;;;;;;;13.15;1.85;;;19.10;99.90;;;;;;5073475;28;20028;-77
2022/07/22 06:35:40;;;;;;;9.32;1.63;;;19.00;99.90;;;;;;5078234;28;20043;-77
2022/07/22 06:38:06;;;;;;;5.80;1.58;;;18.90;99.90;;;;;;5083788;28;20244;-77
2022/07/22 06:40:33;;;;;;;5.10;1.77;;;18.80;99.90;;;;;;5072602;28;20451;-77
2022/07/22 06:42:58;;;;;;;6.70;1.70;;;18.90;99.90;;;;;;5070597;28;20502;-77
2022/07/22 06:45:24;;;;;;;8.90;1.80;;;18.90;99.90;;;;;;5074616;28;20028;-77
2022/07/22 06:47:50;;;;;;;11.02;2.28;;;18.90;99.90;;;;;;5078965;28;20024;-77
2022/07/22 06:50:15;;;;;;;5.57;2.10;;;19.00;99.90;;;;;;5073672;28;20028;-77
2022/07/22 06:52:43;;;;;;;9.88;2.13;;;19.10;99.90;;;;;;5071540;28;20032;-77
2022/07/22 06:55:09;;;;;;;5.38;1.75;;;19.10;99.90;;;;;;5079013;28;20016;-77
2022/07/22 06:57:35;;;;;;;6.15;1.80;;;19.00;99.90;;;;;;5083333;28;20600;-77
2022/07/22 07:00:02;;;;;;;6.20;1.52;;;19.10;99.90;;;;;;5082104;28;20492;-77
2022/07/22 07:02:27;;;;;;;6.38;1.92;;;19.10;99.90;;;;;;5081447;28;20032;-76
2022/07/22 07:04:53;;;;;;;8.57;1.80;;;19.30;99.90;;;;;;5072799;28;20162;-77
2022/07/22 07:07:19;;;;;;;7.35;1.50;;;19.40;99.90;;;;;;5074710;28;20467;-79
2022/07/22 07:09:44;;;;;;;3.83;1.95;;;19.50;99.90;;;;;;5070810;28;20558;-77
2022/07/22 07:12:10;;;;;;;5.30;1.95;;;19.70;99.90;;;;;;5076659;28;20028;-77
2022/07/22 07:14:35;;;;;;;6.55;2.15;;;20.00;99.90;;;;;;5079480;28;20025;-79
2022/07/22 07:17:01;;;;;;;4.00;1.58;;;20.40;99.90;;;;;;5071394;28;20384;-77
2022/07/22 07:19:27;;;;;;;7.35;1.77;;;20.70;99.90;;;;;;5071542;28;20380;-77
2022/07/22 07:21:52;;;;;;;6.63;1.42;;;21.00;99.90;;;;;;5079719;28;20031;-76
2022/07/22 07:24:18;;;;;;;7.93;1.95;;;21.40;99.90;;;;;;5076404;28;20031;-76
2022/07/22 07:26:44;;;;;;;10.23;1.77;;;21.60;99.90;;;;;;5084108;28;20110;-77
2022/07/22 07:29:09;;;;;;;5.88;1.38;;;21.90;99.90;;;;;;5070807;28;20019;-77
2022/07/22 07:31:35;;;;;;;7.40;1.20;;;22.20;99.90;;;;;;5081090;28;20044;-77
2022/07/22 07:34:01;;;;;;;6.88;1.38;;;22.30;99.90;;;;;;5078152;28;20075;-78
2022/07/22 07:36:27;;;;;;;7.15;1.52;;;22.30;99.90;;;;;;5068410;28;20610;-77
2022/07/22 07:38:52;;;;;;;7.50;1.52;;;22.20;99.90;;;;;;5070754;28;20150;-76
2022/07/22 07:41:18;;;;;;;5.15;1.85;;;22.10;99.90;;;;;;5077334;28;20036;-77
2022/07/22 07:43:44;;;;;;;8.00;1.60;;;21.80;99.90;;;;;;5071567;28;20145;-76
2022/07/22 07:46:09;;;;;;;5.45;1.25;;;21.70;99.90;;;;;;5081620;28;20632;-77
2022/07/22 07:48:35;;;;;;;3.90;1.77;;;21.50;99.90;;;;;;5083870;28;20015;-76
2022/07/22 07:51:01;;;;;;;7.22;1.42;;;22.00;99.90;;;;;;5070822;28;20032;-80
2022/07/22 07:53:26;;;;;;;4.68;2.25;;;22.60;99.90;;;;;;5051992;28;20120;-77
2022/07/22 07:55:52;;;;;;;4.38;1.20;;;23.10;99.90;;;;;;5065684;28;20118;-76
2022/07/22 07:58:18;;;;;;;6.00;1.40;;;22.90;99.90;;;;;;5050025;28;20023;-77
2022/07/22 08:00:44;;;;;;;4.20;1.83;;;22.90;99.90;;;;;;5054106;28;20036;-76
2022/07/22 08:03:10;;;;;;;7.60;1.70;;;22.50;99.90;;;;;;5067024;28;20514;-77
2022/07/22 08:05:36;;;;;;;8.63;1.60;;;23.90;99.90;;;;;;5064331;28;20047;-78
2022/07/22 08:08:02;;;;;;;7.82;1.75;;;26.00;99.90;;;;;;5062421;28;20187;-78
2022/07/22 08:10:28;;;;;;;5.60;1.20;;;29.00;90.20;;;;;;5067713;28;20106;-80
2022/07/22 08:12:56;;;;;;;6.03;1.55;;;29.80;76.00;;;;;;5060371;28;20025;-77
2022/07/22 08:15:21;;;;;;;11.57;1.92;;;29.70;72.90;;;;;;5070992;28;20032;-78
2022/07/22 08:17:49;;;;;;;6.03;1.58;;;29.20;72.40;;;;;;5067516;28;20475;-77
2022/07/22 08:20:15;;;;;;;4.68;1.70;;;28.30;78.80;;;;;;5077948;28;20042;-78
2022/07/22 08:22:40;;;;;;;4.35;1.20;;;27.30;82.40;;;;;;5067682;28;20017;-77
2022/07/22 08:25:06;;;;;;;5.32;1.38;;;26.70;91.80;;;;;;5073226;28;20031;-78
2022/07/22 08:27:32;;;;;;;3.78;1.33;;;27.20;90.60;;;;;;5071162;28;20050;-77
2022/07/22 08:29:57;;;;;;;3.88;0.98;;;28.00;89.20;;;;;;5075684;28;20591;-78
2022/07/22 08:32:23;;;;;;;3.80;1.65;;;28.70;80.70;;;;;;5083343;28;20132;-80
2022/07/22 08:34:50;;;;;;;8.52;1.60;;;29.10;76.70;;;;;;5066354;28;20035;-79
2022/07/22 08:37:15;;;;;;;7.65;1.30;;;29.30;74.60;;;;;;5081047;28;20487;-79
2022/07/22 08:39:41;;;;;;;3.83;1.05;;;30.60;70.40;;;;;;5075690;28;20081;-80
2022/07/22 08:42:07;;;;;;;6.18;1.50;;;31.70;62.60;;;;;;5083645;28;20028;-78
2022/07/22 08:44:33;;;;;;;5.93;1.27;;;31.20;58.90;;;;;;5074957;28;20194;-79
2022/07/22 08:47:00;;;;;;;3.78;1.30;;;30.50;61.00;;;;;;5071112;28;20024;-79
2022/07/22 08:49:26;;;;;;;7.88;1.42;;;30.10;60.80;;;;;;5070736;28;20057;-79
2022/07/22 08:51:53;;;;;;;4.50;1.40;;;29.70;66.30;;;;;;5064026;28;20595;-78
2022/07/22 08:54:19;;;;;;;6.15;1.48;;;28.40;65.00;;;;;;5068263;28;20024;-79
2022/07/22 08:56:52;;;;;;;7.53;1.27;;;27.90;74.50;;;;;;5072058;28;20498;-79
2022/07/22 08:59:18;;;;;;;7.45;1.30;;;27.50;76.10;;;;;;5072436;28;20399;-77
2022/07/22 09:02:07;;;;;;;6.50;1.65;;;27.90;77.30;;;;;;5078703;28;20035;-83
2022/07/22 09:04:51;;;;;;;7.90;1.42;;;28.10;75.50;;;;;;5075245;28;20032;-77
2022/07/22 09:07:30;;;;;;;4.85;1.15;;;27.60;74.90;;;;;;5063744;28;20050;-79
2022/07/22 09:09:57;;;;;;;4.88;1.00;;;27.20;80.70;;;;;;5065491;28;20068;-78
2022/07/22 09:12:23;;;;;;;6.15;1.70;;;26.90;84.70;;;;;;5065795;28;20032;-78
2022/07/22 09:14:52;;;;;;;6.53;1.83;;;27.60;82.70;;;;;;5068980;28;20514;-77
2022/07/22 09:17:28;;;;;;;6.75;1.83;;;28.20;77.50;;;;;;5076106;28;20127;-77
2022/07/22 09:19:56;;;;;;;5.18;1.67;;;29.40;70.60;;;;;;5078207;28;20020;-78
2022/07/22 09:22:43;;;;;;;6.22;1.70;;;30.20;63.90;;;;;;5072760;28;20387;-78
2022/07/22 09:25:20;;;;;;;5.75;1.30;;;30.70;61.70;;;;;;5071603;28;20032;-78
2022/07/22 09:27:47;;;;;;;6.45;1.25;;;30.40;59.80;;;;;;5075370;28;20032;-78
2022/07/22 09:30:26;;;;;;;3.80;1.63;;;29.40;65.40;;;;;;5093433;28;20543;-78
2022/07/22 09:32:56;;;;;;;5.18;1.58;;;29.50;67.20;;;;;;5075167;28;20475;-77
2022/07/22 09:35:22;;;;;;;7.85;1.42;;;29.50;63.50;;;;;;5098927;28;20561;-79
2022/07/22 09:37:53;;;;;;;3.67;1.25;;;30.30;67.20;;;;;;5104374;28;20036;-78
2022/07/22 09:40:20;;;;;;;;;;;31.70;60.10;;;;;;5079748;28;20105;-80
2022/07/22 09:42:51;;;;;;;4.88;1.25;;;32.60;55.90;;;;;;5056245;28;19967;-81
2022/07/22 09:45:18;;;;;;;;;;;32.30;51.10;;;;;;5052696;28;20514;-80
2022/07/22 09:47:45;;;;;;;4.68;1.45;;;31.80;54.20;;;;;;5078339;28;19950;-80
2022/07/22 09:50:16;;;;;;;5.22;1.35;;;31.40;53.00;;;;;;5076696;28;20021;-79
2022/07/22 09:52:42;;;;;;;7.43;1.42;;;31.00;55.30;;;;;;5080768;28;20032;-80
2022/07/22 09:55:08;;;;;;;3.30;1.48;;;29.90;59.20;;;;;;5083426;28;20101;-80
2022/07/22 09:57:34;;;;;;;6.47;1.67;;;30.30;59.40;;;;;;5084623;28;20450;-79
2022/07/22 10:00:00;;;;;;;8.40;1.48;;;30.10;55.00;;;;;;5076278;28;20055;-80
2022/07/22 10:02:27;;;;;;;3.90;1.20;;;29.00;59.50;;;;;;5080430;28;20028;-80
2022/07/22 10:04:55;;;;;;;3.42;1.30;;;28.70;60.50;;;;;;5087131;28;20030;-80
2022/07/22 10:07:23;;;;;;;1.67;1.08;;;28.10;70.80;;;;;;5074062;28;20551;-79
2022/07/22 10:09:51;;;;;;;8.90;2.30;;;27.90;70.30;;;;;;5077250;28;20105;-80
2022/07/22 10:12:18;;;;;;;5.70;1.65;;;27.70;67.30;;;;;;5085073;28;20135;-79
2022/07/22 10:14:45;;;;;;;4.47;1.95;;;27.20;69.50;;;;;;5079137;28;20040;-78
2022/07/22 10:17:15;;;;;;;9.77;2.72;;;27.00;77.50;;;;;;5085095;28;20043;-78
2022/07/22 10:19:41;;;;;;;5.93;1.83;;;26.80;79.40;;;;;;5071975;28;20028;-79
2022/07/22 10:22:41;;;;;;;8.07;1.70;;;26.80;80.80;;;;;;5085329;28;20066;-79
2022/07/22 10:25:08;;;;;;;4.53;1.70;;;26.80;83.00;;;;;;5075153;28;20099;-77
2022/07/22 10:27:48;;;;;;;4.70;1.55;;;27.70;76.90;;;;;;5082450;28;20185;-78
2022/07/22 10:30:17;;;;;;;3.97;1.65;;;28.20;70.80;;;;;;5073554;28;20063;-78
2022/07/22 10:32:43;;;;;;;8.25;1.90;;;27.90;69.10;;;;;;5088948;28;20024;-77
2022/07/22 10:35:09;;;;;;;7.13;2.13;;;27.40;74.30;;;;;;5082198;28;20051;-77
2022/07/22 10:37:34;;;;;;;5.70;1.77;;;26.60;76.20;;;;;;5078454;28;20071;-77
2022/07/22 10:40:14;;;;;;;6.10;1.80;;;25.90;80.20;;;;;;5075360;28;20035;-77
2022/07/22 10:42:58;;;;;;;7.22;1.73;;;25.50;90.90;;;;;;5071786;28;20035;-77
2022/07/22 10:45:29;;;;;;;5.60;1.42;;;25.10;93.50;;;;;;5071065;28;20025;-77
2022/07/22 10:47:57;;;;;;;5.25;2.33;;;24.80;94.50;;;;;;5080185;28;20024;-78
2022/07/22 10:50:35;;;;;;;6.45;1.60;;;24.50;94.30;;;;;;5073810;28;20073;-78
2022/07/22 10:53:02;;;;;;;6.43;1.60;;;24.10;96.80;;;;;;5080388;28;20058;-78
2022/07/22 10:55:27;;;;;;;3.88;1.08;;;23.80;97.00;;;;;;5075812;28;20035;-77
2022/07/22 10:57:53;;;;;;;5.75;2.50;;;23.40;99.90;;;;;;5074987;28;20028;-77
2022/07/22 11:00:19;;;;;;;4.32;1.90;;;23.20;99.90;;;;;;5070396;28;20087;-77
2022/07/22 11:02:45;;;;;;;5.75;1.90;;;22.90;99.90;;;;;;5075445;28;20031;-76
2022/07/22 11:05:11;;;;;;;5.47;1.98;;;22.60;99.90;;;;;;5067897;28;20075;-77
2022/07/22 11:07:47;;;;;;;4.45;1.50;;;22.40;99.90;;;;;;5074285;28;20028;-77
2022/07/22 11:10:19;;;;;;;7.40;1.83;;;22.20;99.90;;;;;;5074763;28;20105;-76
2022/07/22 11:12:47;;;;;;;9.15;2.25;;;22.10;99.90;;;;;;5053649;28;20036;-76
2022/07/22 11:15:13;;;;;;;3.03;1.77;;;21.80;99.90;;;;;;5083123;28;20044;-75
2022/07/22 11:17:39;;;;;;;10.05;2.95;;;21.80;99.90;;;;;;5079021;28;20569;-75
2022/07/22 11:20:07;;;;;;;4.43;2.40;;;21.80;99.90;;;;;;5064879;28;20020;-75
2022/07/22 11:22:33;;;;;;;7.82;2.83;;;21.80;99.90;;;;;;5070636;28;20467;-76
2022/07/22 11:25:06;;;;;;;7.28;2.38;;;21.70;99.90;;;;;;5070132;28;20291;-76
2022/07/22 11:27:31;;;;;;;5.30;2.25;;;21.80;99.90;;;;;;5075570;28;20526;-75
2022/07/22 11:29:57;;;;;;;5.13;2.35;;;21.60;99.90;;;;;;5069207;28;20141;-75
2022/07/22 11:32:27;;;;;;;5.65;1.90;;;21.40;99.90;;;;;;5075337;28;20065;-74
2022/07/22 11:34:53;;;;;;;3.97;2.28;;;21.30;99.90;;;;;;5083232;28;20023;-75
2022/07/22 11:37:23;;;;;;;4.50;2.30;;;21.20;99.90;;;;;;5079139;28;20070;-75
2022/07/22 11:39:50;;;;;;;10.10;2.25;;;21.10;99.90;;;;;;5076966;28;20100;-75
2022/07/22 11:42:16;;;;;;;6.60;2.78;;;20.80;99.90;;;;;;5069699;28;20102;-75
2022/07/22 11:44:41;;;;;;;7.43;2.42;;;20.70;99.90;;;;;;5076257;28;20154;-75
2022/07/22 11:47:08;;;;;;;8.43;3.13;;;20.50;99.90;;;;;;5078227;28;20091;-75
2022/07/22 11:49:36;;;;;;;6.30;2.70;;;20.20;99.90;;;;;;5074863;28;20329;-75
2022/07/22 11:52:11;;;;;;;4.85;2.67;;;20.00;99.90;;;;;;5087508;28;20020;-75
2022/07/22 11:54:38;;;;;;;7.43;2.75;;;19.80;99.90;;;;;;5074838;28;20600;-74
2022/07/22 11:57:03;;;;;;;6.72;3.35;;;19.90;99.90;;;;;;5075921;28;20028;-74
2022/07/22 11:59:29;;;;;;;7.20;3.60;;;20.00;99.90;;;;;;5075631;28;20043;-77
2022/07/22 12:01:55;;;;;;;9.85;3.42;;;20.10;99.90;;;;;;5074511;28;20640;-76
2022/07/22 12:04:23;;;;;;;11.20;3.88;;;20.30;99.90;;;;;;5082188;28;20398;-76
2022/07/22 12:06:49;;;;;;;7.10;3.05;;;20.30;99.90;;;;;;5076043;28;20035;-76
2022/07/22 12:09:28;;;;;;;8.23;2.90;;;20.60;99.90;;;;;;5046845;28;20888;-76
2022/07/22 12:11:57;;;;;;;6.72;3.08;;;20.80;99.90;;;;;;5074875;28;20678;-76
2022/07/22 12:14:26;;;;;;;7.38;3.10;;;20.90;99.90;;;;;;5063304;28;20024;-75
2022/07/22 12:17:06;;;;;;;9.23;3.40;;;21.00;99.90;;;;;;5061408;28;20044;-75
2022/07/22 12:19:34;;;;;;;4.80;2.88;;;21.00;99.90;;;;;;5066497;28;20118;-75
2022/07/22 12:22:04;;;;;;;6.35;2.95;;;21.20;99.90;;;;;;5071994;28;20031;-75
2022/07/22 12:24:38;;;;;;;9.88;3.70;;;20.90;99.90;;;;;;5055550;28;20182;-76
2022/07/22 12:27:05;;;;;;;4.53;3.08;;;21.00;99.90;;;;;;5063216;28;20127;-76
2022/07/22 12:29:43;;;;;;;6.78;2.90;;;21.10;99.90;;;;;;5062956;28;20028;-76
2022/07/22 12:32:25;;;;;;;7.55;3.20;;;21.10;99.90;;;;;;5068480;28;20547;-76
2022/07/22 12:34:53;;;;;;;5.65;2.65;;;21.20;99.90;;;;;;5068967;28;20062;-76
2022/07/22 12:37:22;;;;;;;6.30;3.00;;;21.20;99.90;;;;;;5067025;28;20121;-76
2022/07/22 12:40:05;;;;;;;7.97;2.85;;;21.20;99.90;;;;;;5061227;28;20048;-76
2022/07/22 12:42:40;;;;;;;3.90;2.92;;;21.20;99.90;;;;;;5050093;28;20102;-76
2022/07/22 12:45:09;;;;;;;6.65;3.28;;;21.40;99.90;;;;;;5065209;28;20029;-76